createdAt,value
2023-05-06T00:00:40.213Z,58.90
2023-05-06T00:03:07.561Z,58.98
2023-05-06T00:05:34.982Z,59.19
2023-05-06T00:08:02.187Z,59.28
2023-05-06T00:10:29.419Z,59.42
2023-05-06T00:12:57.016Z,59.69
2023-05-06T00:15:24.633Z,59.81
2023-05-06T00:17:51.820Z,59.94
2023-05-06T00:20:19.137Z,60.15
2023-05-06T00:22:46.610Z,60.13
2023-05-06T00:25:14.051Z,60.22
2023-05-06T00:27:41.507Z,60.24
2023-05-06T00:30:10.061Z,60.56
2023-05-06T00:32:37.456Z,60.44
2023-05-06T00:35:05.132Z,60.65
2023-05-06T00:37:32.374Z,60.66
2023-05-06T00:39:59.562Z,60.65
2023-05-06T00:42:27.199Z,60.76
2023-05-06T00:44:54.550Z,61.05
2023-05-06T00:47:22.973Z,61.26
2023-05-06T00:49:51.756Z,61.22
2023-05-06T00:52:20.548Z,61.25
2023-05-06T00:54:48.186Z,61.28
2023-05-06T00:57:15.652Z,61.62
2023-05-06T00:59:43.245Z,61.79
2023-05-06T01:05:13.295Z,61.98
2023-05-06T01:07:43.959Z,62.18
2023-05-06T01:10:23.082Z,62.22
2023-05-06T01:13:10.590Z,62.09
2023-05-06T01:15:54.993Z,62.52
2023-05-06T01:18:26.985Z,62.19
2023-05-06T01:21:23.718Z,60.38
2023-05-06T01:24:30.989Z,59.10
2023-05-06T01:27:03.147Z,60.10
2023-05-06T01:30:01.743Z,60.64
2023-05-06T01:32:46.443Z,61.55
2023-05-06T01:35:51.310Z,62.03
2023-05-06T01:38:52.244Z,62.43
2023-05-06T01:41:34.427Z,61.60
2023-05-06T01:44:08.990Z,60.44
2023-05-06T01:46:45.155Z,59.64
2023-05-06T01:49:36.062Z,59.28
2023-05-06T01:52:40.929Z,59.93
2023-05-06T01:56:02.512Z,60.69
2023-05-06T01:58:59.576Z,61.85
2023-05-06T02:01:57.355Z,62.53
2023-05-06T02:04:49.084Z,61.86
2023-05-06T02:07:37.983Z,60.59
2023-05-06T02:11:04.491Z,60.13
2023-05-06T02:13:42.730Z,59.47
2023-05-06T02:16:35.602Z,60.23
2023-05-06T02:19:45.190Z,61.59
2023-05-06T02:22:58.230Z,61.64
2023-05-06T02:26:17.564Z,62.44
2023-05-06T02:29:25.651Z,62.75
2023-05-06T02:32:18.874Z,61.57
2023-05-06T02:34:48.030Z,61.22
2023-05-06T02:37:39.415Z,60.20
2023-05-06T02:40:10.403Z,59.25
2023-05-06T02:42:44.733Z,59.70
2023-05-06T02:45:39.353Z,60.71
2023-05-06T02:48:35.310Z,61.35
2023-05-06T02:51:22.440Z,61.98
2023-05-06T02:53:56.589Z,62.43
2023-05-06T02:57:03.607Z,61.45
2023-05-06T03:00:24.459Z,61.76
2023-05-06T03:03:23.157Z,59.63
2023-05-06T03:06:40.936Z,59.68
2023-05-06T03:10:28.857Z,60.98
2023-05-06T03:14:11.039Z,62.26
2023-05-06T03:17:10.636Z,63.28
2023-05-06T03:20:27.756Z,61.73
2023-05-06T03:23:33.432Z,61.18
2023-05-06T03:26:37.271Z,61.32
2023-05-06T03:29:48.524Z,58.34
2023-05-06T03:33:06.063Z,59.33
2023-05-06T03:36:22.077Z,60.33
2023-05-06T03:39:40.513Z,60.54
2023-05-06T03:42:30.354Z,61.26
2023-05-06T03:45:35.067Z,62.29
2023-05-06T03:48:43.902Z,63.19
2023-05-06T03:51:51.363Z,61.82
2023-05-06T03:54:58.462Z,61.33
2023-05-06T03:58:25.601Z,61.04
2023-05-06T04:01:31.871Z,60.57
2023-05-06T04:04:13.190Z,58.95
2023-05-06T04:07:43.193Z,59.01
2023-05-06T04:11:10.546Z,60.83
2023-05-06T04:14:37.477Z,60.45
2023-05-06T04:18:04.809Z,61.24
2023-05-06T04:21:30.944Z,62.86
2023-05-06T04:24:58.429Z,62.00
2023-05-06T04:28:27.958Z,60.91
2023-05-06T04:31:56.452Z,60.51
2023-05-06T04:34:58.849Z,60.12
2023-05-06T04:38:17.611Z,59.66
2023-05-06T04:41:27.663Z,59.58
2023-05-06T04:44:17.802Z,59.55
2023-05-06T04:47:26.026Z,61.18
2023-05-06T04:50:34.936Z,62.47
2023-05-06T04:54:02.040Z,62.07
2023-05-06T04:57:28.866Z,61.22
2023-05-06T05:00:32.269Z,60.50
2023-05-06T05:03:47.035Z,60.10
2023-05-06T05:06:41.985Z,59.53
2023-05-06T05:09:54.460Z,59.46
2023-05-06T05:13:02.459Z,61.00
2023-05-06T05:16:25.367Z,62.01
2023-05-06T05:20:10.717Z,62.56
2023-05-06T05:23:30.847Z,61.64
2023-05-06T05:26:55.204Z,61.94
2023-05-06T05:30:02.889Z,60.49
2023-05-06T05:33:09.829Z,59.36
2023-05-06T05:36:29.472Z,60.10
2023-05-06T05:39:51.138Z,61.12
2023-05-06T05:42:25.569Z,62.33
2023-05-06T05:45:55.761Z,62.31
2023-05-06T05:49:42.641Z,61.09
2023-05-06T05:53:24.282Z,61.14
2023-05-06T05:57:11.269Z,60.50
2023-05-06T06:00:49.219Z,57.79
2023-05-06T06:04:27.519Z,57.23
2023-05-06T06:07:07.399Z,59.14
2023-05-06T06:10:43.102Z,60.15
2023-05-06T06:14:39.951Z,60.62
2023-05-06T06:18:36.356Z,61.32
2023-05-06T06:22:36.948Z,62.01
2023-05-06T06:40:34.218Z,60.81
2023-05-06T06:43:01.634Z,61.07
2023-05-06T06:45:28.983Z,60.71
2023-05-06T06:47:56.381Z,60.50
2023-05-06T06:50:23.568Z,60.76
2023-05-06T06:52:50.725Z,60.56
2023-05-06T06:55:18.075Z,60.32
2023-05-06T06:57:45.179Z,60.32
2023-05-06T07:00:12.908Z,59.67
2023-05-06T07:02:40.547Z,59.95
2023-05-06T07:05:08.202Z,60.06
2023-05-06T07:07:35.848Z,59.99
2023-05-06T07:10:03.526Z,60.07
2023-05-06T07:12:30.753Z,59.71
2023-05-06T07:14:58.119Z,59.86
2023-05-06T07:17:25.502Z,60.01
2023-05-06T07:19:52.700Z,60.16
2023-05-06T07:22:19.910Z,60.05
2023-05-06T07:24:47.368Z,59.40
2023-05-06T07:27:14.601Z,59.22
2023-05-06T07:29:41.769Z,59.04
2023-05-06T07:32:10.032Z,59.01
2023-05-06T07:34:37.420Z,58.96
2023-05-06T07:37:05.040Z,58.58
2023-05-06T07:39:33.027Z,58.48
2023-05-06T07:42:00.378Z,58.37
2023-05-06T07:44:27.478Z,58.29
2023-05-06T07:46:54.794Z,58.06
2023-05-06T07:49:22.324Z,57.92
2023-05-06T07:51:49.511Z,58.12
2023-05-06T07:54:16.769Z,58.02
2023-05-06T07:56:44.429Z,58.37
2023-05-06T07:59:12.405Z,58.68
2023-05-06T08:01:39.861Z,58.66
2023-05-06T08:04:08.061Z,58.06
2023-05-06T08:06:35.241Z,58.18
2023-05-06T08:09:03.442Z,58.45
2023-05-06T08:11:30.605Z,58.75
2023-05-06T08:13:57.806Z,58.90
2023-05-06T08:16:25.724Z,58.93
2023-05-06T08:18:53.050Z,59.01
2023-05-06T08:21:20.478Z,59.07
2023-05-06T08:23:47.693Z,58.96
2023-05-06T08:26:14.876Z,58.50
2023-05-06T08:28:42.068Z,58.33
2023-05-06T08:31:09.802Z,58.62
2023-05-06T08:33:36.980Z,58.50
2023-05-06T08:36:04.362Z,58.88
2023-05-06T08:38:31.679Z,59.02
2023-05-06T08:41:03.800Z,59.09
2023-05-06T08:43:35.859Z,59.45
2023-05-06T08:46:03.084Z,59.31
2023-05-06T08:48:30.406Z,59.54
2023-05-06T08:51:02.346Z,59.81
2023-05-06T08:53:30.720Z,59.85
2023-05-06T08:56:01.171Z,59.80
2023-05-06T08:58:28.542Z,60.13
2023-05-06T09:00:55.772Z,60.20
2023-05-06T09:03:23.219Z,59.94
2023-05-06T09:05:50.807Z,60.07
2023-05-06T09:08:18.106Z,60.30
2023-05-06T09:10:46.660Z,60.56
2023-05-06T09:13:15.474Z,60.90
2023-05-06T09:15:44.556Z,60.85
2023-05-06T09:18:12.460Z,60.79
2023-05-06T09:20:50.028Z,60.79
2023-05-06T09:23:18.630Z,60.81
2023-05-06T09:25:47.716Z,61.14
2023-05-06T09:28:15.897Z,61.38
2023-05-06T09:30:45.575Z,61.28
2023-05-06T09:33:13.095Z,61.19
2023-05-06T09:35:43.457Z,60.88
2023-05-06T09:38:10.933Z,60.82
2023-05-06T09:40:39.308Z,60.92
2023-05-06T09:43:07.214Z,61.54
2023-05-06T09:45:34.587Z,61.38
2023-05-06T09:48:01.892Z,61.43
2023-05-06T09:50:29.660Z,61.39
2023-05-06T09:52:57.181Z,61.30
2023-05-06T09:55:27.402Z,60.92
2023-05-06T09:57:56.816Z,60.66
2023-05-06T10:00:28.461Z,60.82
2023-05-06T10:02:56.711Z,61.10
2023-05-06T10:05:27.296Z,61.17
2023-05-06T10:07:57.639Z,61.09
2023-05-06T10:10:25.610Z,61.01
2023-05-06T10:12:53.488Z,60.99
2023-05-06T10:15:20.815Z,61.20
2023-05-06T10:17:50.966Z,61.22
2023-05-06T10:20:19.982Z,61.28
2023-05-06T10:23:10.971Z,62.26
2023-05-06T10:25:43.161Z,63.55
2023-05-06T10:28:16.649Z,63.72
2023-05-06T10:30:56.343Z,63.65
2023-05-06T10:33:25.316Z,65.00
2023-05-06T10:36:01.719Z,64.81
2023-05-06T10:38:38.556Z,63.44
2023-05-06T10:41:09.027Z,63.66
2023-05-06T10:43:41.924Z,63.78
2023-05-06T10:46:17.740Z,64.36
2023-05-06T10:49:09.168Z,65.15
2023-05-06T10:51:37.584Z,67.82
2023-05-06T10:54:09.566Z,65.31
2023-05-06T10:57:03.060Z,66.99
2023-05-06T10:59:31.640Z,68.05
2023-05-06T11:02:05.573Z,67.21
2023-05-06T11:04:35.675Z,67.14
2023-05-06T11:07:14.789Z,65.93
2023-05-06T11:10:00.040Z,66.11
2023-05-06T11:12:47.125Z,65.00
2023-05-06T11:15:37.541Z,63.94
2023-05-06T11:18:37.460Z,64.96
2023-05-06T11:21:07.494Z,65.91
2023-05-06T11:23:43.885Z,64.06
2023-05-06T11:26:12.425Z,64.63
2023-05-06T11:28:45.079Z,64.11
2023-05-06T11:31:22.905Z,63.85
2023-05-06T11:33:59.193Z,65.23
2023-05-06T11:36:28.897Z,66.47
2023-05-06T11:39:00.199Z,64.50
2023-05-06T11:41:27.581Z,65.31
2023-05-06T11:43:54.903Z,66.15
2023-05-06T11:46:24.090Z,66.80
2023-05-06T11:48:51.554Z,66.40
2023-05-06T11:51:25.149Z,65.82
2023-05-06T11:53:53.740Z,65.56
2023-05-06T11:56:21.301Z,67.71
2023-05-06T11:58:49.242Z,67.65
2023-05-06T12:01:16.426Z,68.52
2023-05-06T12:03:43.849Z,68.98
2023-05-06T12:06:13.305Z,69.36
2023-05-06T12:08:40.749Z,69.54
2023-05-06T12:11:09.380Z,69.75
2023-05-06T12:13:37.378Z,69.98
2023-05-06T12:16:05.520Z,70.23
2023-05-06T12:18:33.034Z,69.93
2023-05-06T12:21:06.998Z,69.56
2023-05-06T12:23:34.289Z,69.81
2023-05-06T12:26:06.997Z,69.97
2023-05-06T12:29:48.949Z,70.10
2023-05-06T12:33:39.139Z,70.33
2023-05-06T12:37:26.448Z,70.26
2023-05-06T12:41:13.857Z,70.69
2023-05-06T12:45:17.179Z,70.58
2023-05-06T12:48:56.294Z,71.31
2023-05-06T12:52:49.638Z,71.43
2023-05-06T12:56:47.179Z,70.87
2023-05-06T13:00:15.559Z,70.40
2023-05-06T13:03:57.366Z,71.36
2023-05-06T13:07:33.926Z,71.96
2023-05-06T13:11:04.963Z,70.80
2023-05-06T13:14:44.914Z,71.34
2023-05-06T13:18:28.361Z,70.47
2023-05-06T13:22:16.466Z,69.47
2023-05-06T13:26:06.154Z,69.59
2023-05-06T13:29:52.790Z,70.12
2023-05-06T13:33:20.800Z,71.50
2023-05-06T13:37:08.533Z,72.73
2023-05-06T13:40:58.417Z,69.73
2023-05-06T13:44:46.895Z,70.49
2023-05-06T13:48:37.499Z,70.39
2023-05-06T13:52:27.634Z,71.24
2023-05-06T13:56:22.610Z,71.74
2023-05-06T14:00:09.759Z,69.12
2023-05-06T14:03:58.876Z,69.56
2023-05-06T14:07:49.495Z,69.56
2023-05-06T14:11:43.198Z,69.60
2023-05-06T14:15:33.228Z,72.19
2023-05-06T14:19:22.373Z,72.23
2023-05-06T14:23:12.904Z,70.41
2023-05-06T14:27:00.523Z,69.52
2023-05-06T14:30:52.837Z,70.61
2023-05-06T14:34:40.553Z,69.97
2023-05-06T14:38:37.583Z,69.78
2023-05-06T14:42:25.398Z,70.11
2023-05-06T14:46:21.902Z,70.70
2023-05-06T14:50:08.682Z,69.94
2023-05-06T14:53:56.050Z,69.59
2023-05-06T14:57:31.878Z,69.81
2023-05-06T15:00:59.508Z,69.76
2023-05-06T15:04:46.989Z,69.90
2023-05-06T15:08:34.151Z,70.03
2023-05-06T15:12:02.898Z,69.28
2023-05-06T15:15:30.503Z,68.83
2023-05-06T15:19:17.906Z,70.07
2023-05-06T15:22:46.476Z,69.93
2023-05-06T15:26:33.693Z,69.14
2023-05-06T15:30:20.709Z,70.05
2023-05-06T15:34:14.204Z,69.75
2023-05-06T15:38:01.776Z,68.97
2023-05-06T15:41:51.882Z,69.66
2023-05-06T15:45:39.002Z,68.66
2023-05-06T15:49:49.303Z,68.43
2023-05-06T16:06:25.876Z,68.86
2023-05-06T16:10:29.142Z,68.96
2023-05-06T16:14:16.921Z,68.96
2023-05-06T16:18:04.550Z,68.59
2023-05-06T16:21:52.213Z,68.19
2023-05-06T16:25:40.610Z,69.80
2023-05-06T16:29:33.191Z,68.57
2023-05-06T16:33:20.687Z,68.93
2023-05-06T16:37:08.219Z,68.93
2023-05-06T16:40:55.489Z,69.21
2023-05-06T16:44:43.076Z,69.73
2023-05-06T16:48:38.046Z,69.00
2023-05-06T16:52:25.489Z,68.49
2023-05-06T17:00:19.995Z,69.19
2023-05-06T17:04:11.669Z,68.93
2023-05-06T17:08:08.728Z,69.19
2023-05-06T17:11:56.135Z,69.24
2023-05-06T17:15:43.904Z,69.28
2023-05-06T17:19:35.904Z,68.90
2023-05-06T17:22:46.037Z,68.36
2023-05-06T17:26:33.498Z,68.53
2023-05-06T17:30:02.584Z,68.57
2023-05-06T17:33:29.822Z,69.19
2023-05-06T17:37:19.181Z,68.75
2023-05-06T17:41:07.036Z,69.19
2023-05-06T17:44:56.934Z,70.10
2023-05-06T17:48:55.678Z,70.36
2023-05-06T17:52:47.420Z,70.69
2023-05-06T17:56:45.151Z,70.95
2023-05-06T18:00:40.729Z,70.01
2023-05-06T18:04:28.841Z,70.41
2023-05-06T18:08:18.290Z,70.66
2023-05-06T18:11:57.001Z,70.80
2023-05-06T18:15:44.275Z,71.47
2023-05-06T18:19:33.059Z,70.99
2023-05-06T18:23:20.854Z,71.04
2023-05-06T18:27:09.633Z,70.55
2023-05-06T18:35:15.739Z,70.13
2023-05-06T18:37:42.968Z,70.62
2023-05-06T18:40:10.498Z,70.49
2023-05-06T18:42:38.468Z,70.00
2023-05-06T18:45:07.424Z,70.32
2023-05-06T18:47:34.762Z,70.00
2023-05-06T18:50:02.787Z,70.31
2023-05-06T18:52:29.940Z,70.91
2023-05-06T18:54:57.141Z,70.31
2023-05-06T18:57:26.887Z,70.32
2023-05-06T18:59:54.057Z,70.81
2023-05-06T19:02:21.282Z,70.80
2023-05-06T19:04:48.784Z,71.08
2023-05-06T19:07:16.472Z,71.13
2023-05-06T19:09:43.684Z,71.08
2023-05-06T19:12:11.117Z,70.99
2023-05-06T19:14:38.531Z,71.45
2023-05-06T19:17:05.900Z,71.23
2023-05-06T19:19:33.547Z,71.87
2023-05-06T19:22:02.125Z,71.68
2023-05-06T19:24:30.396Z,71.18
2023-05-06T19:26:58.138Z,71.22
2023-05-06T19:29:25.415Z,70.93
2023-05-06T19:31:52.676Z,70.85
2023-05-06T19:34:20.306Z,70.85
2023-05-06T19:36:47.919Z,71.05
2023-05-06T19:39:16.686Z,70.87
2023-05-06T19:41:43.963Z,71.08
2023-05-06T19:44:11.352Z,70.41
2023-05-06T19:46:38.693Z,71.16
2023-05-06T19:49:07.328Z,70.44
2023-05-06T19:51:34.973Z,71.26
2023-05-06T19:54:02.129Z,70.59
2023-05-06T19:56:29.890Z,70.12
2023-05-06T19:58:57.053Z,69.92
2023-05-06T20:01:24.888Z,70.16
2023-05-06T20:03:52.586Z,70.19
2023-05-06T20:06:19.983Z,70.81
2023-05-06T20:08:47.222Z,70.97
2023-05-06T20:11:14.697Z,70.97
2023-05-06T20:13:41.945Z,70.25
2023-05-06T20:16:09.502Z,70.12
2023-05-06T20:18:37.643Z,70.01
2023-05-06T20:21:05.219Z,69.93
2023-05-06T20:23:32.548Z,69.70
2023-05-06T20:25:59.815Z,69.82
2023-05-06T20:28:27.262Z,69.56
2023-05-06T20:30:55.960Z,69.30
2023-05-06T20:33:23.292Z,69.22
2023-05-06T20:35:51.524Z,69.49
2023-05-06T20:38:19.853Z,69.42
2023-05-06T20:40:48.536Z,69.33
2023-05-06T20:43:16.600Z,69.20
2023-05-06T20:45:44.255Z,68.80
2023-05-06T20:48:13.602Z,68.84
2023-05-06T20:50:42.427Z,68.91
2023-05-06T20:53:09.538Z,68.33
2023-05-06T20:55:37.037Z,68.31
2023-05-06T20:58:04.790Z,68.53
2023-05-06T21:00:32.253Z,68.62
2023-05-06T21:02:59.798Z,68.60
2023-05-06T21:05:27.212Z,68.59
2023-05-06T21:07:54.317Z,68.48
2023-05-06T21:10:21.770Z,68.47
2023-05-06T21:12:50.644Z,68.38
2023-05-06T21:15:18.357Z,68.45
2023-05-06T21:17:46.090Z,68.50
2023-05-06T21:20:13.765Z,68.24
2023-05-06T21:22:41.024Z,68.05
2023-05-06T21:25:09.380Z,68.17
2023-05-06T21:27:36.748Z,67.79
2023-05-06T21:30:04.271Z,67.72
2023-05-06T21:32:33.598Z,67.67
2023-05-06T21:35:03.930Z,67.82
2023-05-06T21:37:31.313Z,67.94
2023-05-06T21:39:58.539Z,67.84
2023-05-06T21:42:25.800Z,67.85
2023-05-06T21:44:52.908Z,67.80
2023-05-06T21:47:20.412Z,68.30
2023-05-06T21:49:47.634Z,68.27
2023-05-06T21:52:14.935Z,68.13
2023-05-06T21:54:42.883Z,68.04
2023-05-06T21:57:10.229Z,68.13
2023-05-06T21:59:37.341Z,68.32
2023-05-06T22:02:05.085Z,67.96
2023-05-06T22:04:32.516Z,68.04
2023-05-06T22:06:59.797Z,68.37
2023-05-06T22:09:27.097Z,68.37
2023-05-06T22:11:54.308Z,68.46
2023-05-06T22:14:24.345Z,68.36
2023-05-06T22:16:55.009Z,68.62
2023-05-06T22:19:22.973Z,68.69
2023-05-06T22:21:50.240Z,68.26
2023-05-06T22:24:18.008Z,68.22
2023-05-06T22:26:45.302Z,67.92
2023-05-06T22:29:12.506Z,68.10
2023-05-06T22:31:40.326Z,68.09
2023-05-06T22:34:07.558Z,68.28
2023-05-06T22:36:34.917Z,68.32
2023-05-06T22:39:02.614Z,68.09
2023-05-06T22:41:31.133Z,68.40
2023-05-06T22:44:00.654Z,68.37
2023-05-06T22:46:29.206Z,68.44
2023-05-06T22:48:56.486Z,68.31
2023-05-06T22:51:23.556Z,68.07
2023-05-06T22:53:50.836Z,67.94
2023-05-06T22:56:19.452Z,68.25
2023-05-06T22:58:46.762Z,68.21
2023-05-06T23:01:14.245Z,67.91
2023-05-06T23:03:41.478Z,68.10
2023-05-06T23:06:08.877Z,68.01
2023-05-06T23:08:36.533Z,68.18
2023-05-06T23:11:03.798Z,68.31
2023-05-06T23:13:36.481Z,68.24
2023-05-06T23:16:04.172Z,68.22
2023-05-06T23:18:31.351Z,68.53
2023-05-06T23:20:58.596Z,68.64
2023-05-06T23:23:25.857Z,68.64
2023-05-06T23:25:53.718Z,68.49
2023-05-06T23:28:21.619Z,68.65
2023-05-06T23:30:49.360Z,68.57
2023-05-06T23:33:16.688Z,68.33
2023-05-06T23:35:43.813Z,68.27
2023-05-06T23:38:11.114Z,68.14
2023-05-06T23:40:38.316Z,67.91
2023-05-06T23:43:07.608Z,67.89
2023-05-06T23:45:35.097Z,67.77
2023-05-06T23:48:02.445Z,67.68
2023-05-06T23:50:29.785Z,67.69
2023-05-06T23:52:56.933Z,67.70
2023-05-06T23:55:26.577Z,67.62
2023-05-06T23:57:53.863Z,67.64
